Time;durP1;ratioP1;P1;durP2;ratioP2;P2;SDS_P1;SDS_P2;PMS_P1;PMS_P2;Temp;Humidity;BMP_temperature;BMP_pressure;BME280_temperature;BME280_humidity;BME280_pressure;Samples;Min_cycle;Max_cycle;Signal;HPM_P1;HPM_P2
2021/09/17 00:01:24;;;;;;;19.02;12.58;;;;;;;17.40;95.58;100192.40;1684516;83;26013;-80
2021/09/17 00:03:51;;;;;;;15.38;11.63;;;;;;;17.38;95.54;100197.76;1691256;83;28163;-80
2021/09/17 00:06:18;;;;;;;20.77;13.85;;;;;;;17.37;95.53;100197.45;1724933;82;25780;-79
2021/09/17 00:08:45;;;;;;;17.27;13.38;;;;;;;17.36;95.55;100193.95;1693434;83;25815;-79
2021/09/17 00:11:13;;;;;;;17.45;12.58;;;;;;;17.35;95.42;100192.81;1694955;83;25811;-79
2021/09/17 00:13:40;;;;;;;17.90;13.30;;;;;;;17.35;95.38;100188.22;1688245;84;25869;-80
2021/09/17 00:16:07;;;;;;;18.90;13.22;;;;;;;17.34;95.30;100191.19;1721429;83;28390;-79
2021/09/17 00:18:34;;;;;;;16.70;11.83;;;;;;;17.31;95.15;100191.66;1683883;83;25866;-79
2021/09/17 00:21:01;;;;;;;16.02;12.95;;;;;;;17.29;95.17;100194.61;1695619;83;26485;-80
2021/09/17 00:23:28;;;;;;;18.35;12.88;;;;;;;17.27;95.11;100182.37;1702229;83;25812;-79
2021/09/17 00:25:56;;;;;;;17.57;12.82;;;;;;;17.25;94.94;100183.14;1726099;82;26057;-79
2021/09/17 00:28:23;;;;;;;17.67;14.93;;;;;;;17.24;95.01;100180.95;1697243;83;27169;-80
2021/09/17 00:30:50;;;;;;;16.60;12.65;;;;;;;17.22;94.92;100183.08;1646995;83;26032;-80
2021/09/17 00:33:17;;;;;;;22.82;13.45;;;;;;;17.21;94.66;100187.39;1694856;83;25843;-79
2021/09/17 00:35:44;;;;;;;19.57;15.32;;;;;;;17.13;94.53;100184.52;1736564;82;25782;-80
2021/09/17 00:38:12;;;;;;;19.37;12.95;;;;;;;17.11;94.69;100177.72;1726084;83;25793;-80
2021/09/17 00:40:39;;;;;;;17.15;13.43;;;;;;;17.10;94.79;100172.00;1659063;83;27453;-79
2021/09/17 00:43:06;;;;;;;19.50;13.50;;;;;;;17.09;94.69;100169.82;1693797;83;26652;-79
2021/09/17 00:45:33;;;;;;;18.52;12.45;;;;;;;17.07;94.67;100171.95;1711725;83;25819;-79
2021/09/17 00:48:00;;;;;;;14.60;12.15;;;;;;;17.05;94.60;100170.53;1687907;83;26187;-79
2021/09/17 00:50:27;;;;;;;14.03;11.75;;;;;;;17.05;94.66;100171.36;1726075;82;25888;-79
2021/09/17 00:52:56;;;;;;;15.72;11.57;;;;;;;17.02;94.54;100165.62;1690378;83;27464;-80
2021/09/17 00:55:24;;;;;;;15.30;11.22;;;;;;;17.00;94.46;100159.06;1690298;83;25880;-79
2021/09/17 00:57:51;;;;;;;21.07;13.55;;;;;;;16.98;94.43;100163.09;1684111;83;26804;-79
2021/09/17 01:00:19;;;;;;;15.78;10.72;;;;;;;16.94;94.29;100165.44;1711012;83;25647;-79
2021/09/17 01:02:46;;;;;;;14.60;10.60;;;;;;;16.93;94.24;100163.29;1690620;83;25855;-80
2021/09/17 01:05:14;;;;;;;15.18;11.00;;;;;;;16.88;94.10;100167.23;1713913;83;27501;-79
2021/09/17 01:07:44;;;;;;;13.20;10.30;;;;;;;16.85;94.12;100165.54;1688095;83;25986;-80
2021/09/17 01:10:14;;;;;;;15.63;10.68;;;;;;;16.83;94.22;100169.81;1699184;83;25888;-79
2021/09/17 01:12:42;;;;;;;15.93;10.77;;;;;;;16.83;94.28;100162.22;1683178;83;25633;-79
2021/09/17 01:15:11;;;;;;;15.23;11.03;;;;;;;16.82;94.25;100160.59;1704664;83;25761;-79
2021/09/17 01:17:42;;;;;;;14.93;10.48;;;;;;;16.81;94.15;100159.77;1708640;82;27695;-80
2021/09/17 01:20:14;;;;;;;11.68;10.05;;;;;;;16.79;94.18;100161.05;1705069;83;25970;-79
2021/09/17 01:22:41;;;;;;;18.67;10.40;;;;;;;16.75;94.11;100154.48;1705267;83;25852;-79
2021/09/17 01:25:12;;;;;;;13.28;10.00;;;;;;;16.72;94.10;100155.77;1698650;82;26244;-80
2021/09/17 01:27:45;;;;;;;19.30;11.20;;;;;;;16.71;94.15;100153.31;1682687;83;25958;-80
2021/09/17 01:30:14;;;;;;;20.17;13.10;;;;;;;16.69;94.30;100156.78;1698537;83;27435;-79
2021/09/17 01:32:41;;;;;;;19.50;13.70;;;;;;;16.67;94.36;100148.09;1702518;83;25381;-79
2021/09/17 01:35:15;;;;;;;18.48;13.65;;;;;;;16.64;94.22;100149.37;1698599;83;25553;-80
2021/09/17 01:37:43;;;;;;;17.57;12.00;;;;;;;16.60;94.32;100148.21;1733016;82;25907;-79
2021/09/17 01:40:12;;;;;;;14.63;12.18;;;;;;;16.59;94.21;100156.05;1709125;82;26548;-79
2021/09/17 01:42:41;;;;;;;17.32;12.98;;;;;;;16.58;94.37;100153.03;1699599;82;27622;-79
2021/09/17 01:45:10;;;;;;;14.07;11.25;;;;;;;16.56;94.36;100147.05;1726003;82;25736;-79
2021/09/17 01:47:38;;;;;;;12.78;10.95;;;;;;;16.54;94.18;100149.16;1687907;83;25944;-80
2021/09/17 01:50:08;;;;;;;16.87;10.35;;;;;;;16.51;94.22;100144.77;1709900;83;25828;-80
2021/09/17 01:52:35;;;;;;;13.88;10.13;;;;;;;16.50;94.23;100143.94;1677881;83;25932;-80
2021/09/17 01:55:03;;;;;;;23.20;12.53;;;;;;;16.46;94.19;100140.55;1662047;83;28138;-79
2021/09/17 01:57:30;;;;;;;15.85;10.68;;;;;;;16.42;94.14;100143.44;1705634;82;26738;-79
2021/09/17 01:59:57;;;;;;;14.65;10.75;;;;;;;16.43;94.34;100143.72;1699933;83;25827;-80
2021/09/17 02:02:24;;;;;;;13.48;9.50;;;;;;;16.42;94.27;100144.27;1693294;81;25926;-79
2021/09/17 02:04:51;;;;;;;12.50;9.83;;;;;;;16.41;94.27;100142.61;1705175;83;25755;-79
2021/09/17 02:07:18;;;;;;;10.85;9.00;;;;;;;16.41;94.28;100136.38;1684368;83;28021;-79
2021/09/17 02:09:45;;;;;;;15.38;10.18;;;;;;;16.43;94.33;100134.25;1690470;83;26133;-79
2021/09/17 02:12:12;;;;;;;16.87;9.50;;;;;;;16.43;94.22;100129.67;1705493;82;25946;-80
2021/09/17 02:14:40;;;;;;;13.50;9.58;;;;;;;16.42;94.17;100128.57;1719388;82;25440;-78
2021/09/17 02:17:08;;;;;;;12.82;9.63;;;;;;;16.44;94.15;100125.09;1714019;81;25828;-77
2021/09/17 02:19:35;;;;;;;14.05;9.80;;;;;;;16.45;94.10;100120.80;1652065;82;28243;-77
2021/09/17 02:22:03;;;;;;;12.18;9.18;;;;;;;16.45;94.06;100117.27;1694191;82;25813;-77
2021/09/17 02:24:30;;;;;;;12.33;8.60;;;;;;;16.45;93.87;100115.91;1716157;83;25822;-77
2021/09/17 02:26:57;;;;;;;11.28;9.33;;;;;;;16.43;93.79;100109.40;1694981;83;26221;-77
2021/09/17 02:29:24;;;;;;;16.32;10.08;;;;;;;16.43;93.84;100108.58;1696071;83;26018;-77
2021/09/17 02:31:51;;;;;;;11.97;8.85;;;;;;;16.42;93.84;100109.13;1694453;83;27984;-78
2021/09/17 02:34:18;;;;;;;12.47;9.60;;;;;;;16.42;93.69;100113.18;1691670;83;25716;-76
2021/09/17 02:36:45;;;;;;;11.90;9.05;;;;;;;16.41;93.52;100109.34;1694169;83;26720;-78
2021/09/17 02:39:14;;;;;;;16.85;9.43;;;;;;;16.35;93.49;100109.77;1695789;83;25724;-78
2021/09/17 02:41:41;;;;;;;15.40;9.45;;;;;;;16.33;93.50;100110.53;1692766;83;25866;-77
2021/09/17 02:44:09;;;;;;;12.05;9.38;;;;;;;16.28;93.38;100102.30;1716628;83;28150;-77
2021/09/17 02:46:36;;;;;;;12.70;8.70;;;;;;;16.28;93.60;100108.23;1695852;83;25843;-77
2021/09/17 02:49:04;;;;;;;10.35;8.63;;;;;;;16.26;93.40;100110.34;1675465;83;25797;-77
2021/09/17 02:51:31;;;;;;;12.37;8.90;;;;;;;16.23;93.50;100107.05;1721484;82;26165;-77
2021/09/17 02:53:58;;;;;;;14.70;9.25;;;;;;;16.23;93.53;100105.42;1703929;83;25939;-77
2021/09/17 02:56:26;;;;;;;14.43;10.63;;;;;;;16.19;93.41;100111.81;1684775;83;27392;-78
2021/09/17 02:58:53;;;;;;;17.57;10.75;;;;;;;16.17;93.54;100106.65;1685740;83;26719;-77
2021/09/17 03:01:20;;;;;;;13.80;11.10;;;;;;;16.17;93.42;100111.22;1675192;82;25939;-78
2021/09/17 03:03:47;;;;;;;14.60;11.12;;;;;;;16.14;93.36;100109.01;1721082;83;26203;-77
2021/09/17 03:06:14;;;;;;;15.50;10.82;;;;;;;16.10;93.47;100109.98;1695600;82;25820;-78
2021/09/17 03:08:41;;;;;;;18.37;10.85;;;;;;;16.10;93.60;100104.58;1735564;82;27502;-77
2021/09/17 03:11:08;;;;;;;16.50;11.10;;;;;;;16.07;93.34;100098.84;1684626;82;26757;-78
2021/09/17 03:13:36;;;;;;;15.55;11.38;;;;;;;16.07;93.48;100094.78;1710064;82;25812;-77
2021/09/17 03:16:05;;;;;;;15.08;11.33;;;;;;;16.05;93.44;100092.33;1683532;82;25918;-78
2021/09/17 03:18:34;;;;;;;16.85;11.33;;;;;;;16.05;93.49;100096.38;1676564;82;25757;-77
2021/09/17 03:21:01;;;;;;;15.93;12.23;;;;;;;16.03;93.28;100093.61;1683620;82;28136;-77
2021/09/17 03:23:29;;;;;;;23.98;16.35;;;;;;;16.02;93.36;100091.43;1720655;81;26094;-77
2021/09/17 03:25:56;;;;;;;16.37;14.25;;;;;;;16.02;93.17;100087.38;1702888;83;26515;-77
2021/09/17 03:28:24;;;;;;;14.18;11.35;;;;;;;15.97;92.96;100087.25;1636755;82;26153;-77
2021/09/17 03:30:53;;;;;;;10.68;9.10;;;;;;;15.96;93.07;100083.44;1679766;83;26782;-77
2021/09/17 03:33:21;;;;;;;12.33;8.95;;;;;;;15.94;93.00;100082.33;1704440;83;27593;-77
2021/09/17 03:35:48;;;;;;;12.15;8.65;;;;;;;15.94;93.02;100086.91;1665783;84;25989;-77
2021/09/17 03:38:15;;;;;;;15.28;10.80;;;;;;;15.92;92.96;100084.97;1663062;84;25943;-77
2021/09/17 03:40:42;;;;;;;22.17;12.58;;;;;;;15.90;92.80;100088.42;1631717;85;26094;-78
2021/09/17 03:43:09;;;;;;;12.53;8.25;;;;;;;15.85;92.76;100087.77;1684115;84;25836;-77
2021/09/17 03:45:36;;;;;;;9.38;7.33;;;;;;;15.82;92.85;100084.73;1682421;83;27338;-77
2021/09/17 03:48:09;;;;;;;14.25;8.00;;;;;;;15.78;92.74;100081.65;1651968;84;26107;-77
2021/09/17 03:50:37;;;;;;;8.90;7.08;;;;;;;15.76;92.82;100082.41;1657376;84;25870;-77
2021/09/17 03:53:04;;;;;;;9.73;7.80;;;;;;;15.77;92.91;100076.48;1688925;83;25841;-77
2021/09/17 03:55:33;;;;;;;8.00;6.05;;;;;;;15.76;92.91;100081.61;1725977;82;25782;-77
2021/09/17 03:58:03;;;;;;;8.08;7.25;;;;;;;15.75;92.72;100082.13;1674266;82;27734;-77
2021/09/17 04:00:30;;;;;;;15.10;8.33;;;;;;;15.73;92.86;100078.84;1666884;82;25971;-77
2021/09/17 04:02:57;;;;;;;15.45;7.90;;;;;;;15.72;92.66;100079.05;1690299;82;25807;-77
2021/09/17 04:05:24;;;;;;;12.50;6.67;;;;;;;15.71;92.66;100084.18;1700746;82;25895;-77
2021/09/17 04:07:51;;;;;;;10.53;7.22;;;;;;;15.68;92.45;100085.46;1658446;84;25883;-77
2021/09/17 04:10:20;;;;;;;7.40;6.08;;;;;;;15.65;92.54;100081.89;1675336;84;27476;-77
2021/09/17 04:12:48;;;;;;;11.00;6.85;;;;;;;15.64;92.29;100084.28;1726499;83;26594;-77
2021/09/17 04:15:15;;;;;;;8.73;6.75;;;;;;;15.62;92.17;100089.61;1712950;83;26016;-77
2021/09/17 04:17:43;;;;;;;7.12;6.05;;;;;;;15.57;91.99;100090.30;1657035;83;25981;-77
2021/09/17 04:20:10;;;;;;;8.15;5.70;;;;;;;15.54;92.07;100086.73;1695575;83;25903;-77
2021/09/17 04:22:38;;;;;;;10.30;6.70;;;;;;;15.54;92.08;100084.55;1724389;83;27466;-77
2021/09/17 04:25:08;;;;;;;11.00;5.95;;;;;;;15.52;91.84;100090.19;1706664;83;25805;-77
2021/09/17 04:27:35;;;;;;;7.30;5.25;;;;;;;15.46;91.79;100092.99;1702831;82;26020;-77
2021/09/17 04:30:05;;;;;;;8.50;5.83;;;;;;;15.43;91.66;100095.62;1673553;84;25834;-77
2021/09/17 04:32:32;;;;;;;8.55;5.22;;;;;;;15.39;91.69;100092.53;1726564;82;25821;-78
2021/09/17 04:34:59;;;;;;;6.97;5.80;;;;;;;15.38;91.76;100096.79;1713527;83;27371;-77
2021/09/17 04:37:26;;;;;;;9.38;5.72;;;;;;;15.36;91.70;100092.16;1662100;83;25808;-77
2021/09/17 04:39:53;;;;;;;7.72;5.83;;;;;;;15.34;91.63;100098.30;1703719;83;25360;-77
2021/09/17 04:42:20;;;;;;;6.17;5.58;;;;;;;15.29;91.65;100096.30;1727051;82;26100;-77
2021/09/17 04:44:47;;;;;;;7.90;5.83;;;;;;;15.27;91.67;100098.92;1713425;83;25912;-77
2021/09/17 04:47:14;;;;;;;9.13;6.15;;;;;;;15.23;91.71;100099.08;1703360;83;27436;-77
2021/09/17 04:49:42;;;;;;;8.70;6.15;;;;;;;15.20;91.86;100099.04;1717761;81;25768;-77
2021/09/17 04:52:09;;;;;;;7.08;5.45;;;;;;;15.17;91.80;100093.26;1696356;84;25352;-77
2021/09/17 04:54:38;;;;;;;10.85;5.62;;;;;;;15.12;91.76;100105.28;1700128;83;26199;-77
2021/09/17 04:57:05;;;;;;;7.60;6.00;;;;;;;15.07;91.96;100111.35;1682664;83;25834;-77
2021/09/17 04:59:32;;;;;;;11.18;7.17;;;;;;;15.04;92.01;100108.27;1702775;83;27472;-77
2021/09/17 05:01:59;;;;;;;10.72;6.65;;;;;;;15.04;92.20;100102.35;1725799;82;25725;-77
2021/09/17 05:04:26;;;;;;;8.20;6.90;;;;;;;15.04;92.09;100105.05;1708439;83;25766;-77
2021/09/17 05:06:54;;;;;;;9.98;7.17;;;;;;;15.02;92.06;100102.28;1703887;83;26248;-77
2021/09/17 05:09:21;;;;;;;8.55;6.80;;;;;;;15.00;92.05;100110.61;1696882;83;25865;-77
2021/09/17 05:11:48;;;;;;;14.40;6.75;;;;;;;15.01;92.16;100112.78;1667998;83;28262;-77
2021/09/17 05:14:16;;;;;;;9.30;7.25;;;;;;;14.99;92.05;100102.20;1725926;83;25867;-77
2021/09/17 05:16:45;;;;;;;8.05;6.70;;;;;;;14.99;91.89;100106.80;1684266;83;26509;-77
2021/09/17 05:19:12;;;;;;;9.73;7.45;;;;;;;14.98;91.96;100109.18;1629579;83;25831;-77
2021/09/17 05:21:39;;;;;;;13.10;7.22;;;;;;;14.97;91.90;100106.20;1689944;82;25837;-77
2021/09/17 05:24:07;;;;;;;13.00;7.42;;;;;;;14.96;91.77;100106.72;1722172;82;27459;-77
2021/09/17 05:26:34;;;;;;;9.88;7.05;;;;;;;14.96;91.72;100111.28;1712692;82;26569;-77
2021/09/17 05:29:01;;;;;;;9.80;6.70;;;;;;;14.91;91.64;100105.22;1712723;83;25925;-77
2021/09/17 05:31:28;;;;;;;11.65;7.30;;;;;;;14.90;91.66;100108.98;1663973;83;25876;-77
2021/09/17 05:33:55;;;;;;;11.53;6.78;;;;;;;14.88;91.61;100112.95;1713539;83;26495;-77
2021/09/17 05:36:22;;;;;;;8.35;7.30;;;;;;;14.87;91.61;100114.81;1712498;83;27512;-77
2021/09/17 05:38:49;;;;;;;9.05;6.75;;;;;;;14.84;91.65;100109.86;1689977;83;26497;-77
2021/09/17 05:41:16;;;;;;;10.13;7.28;;;;;;;14.83;91.67;100107.39;1663558;83;26595;-77
2021/09/17 05:43:43;;;;;;;9.00;7.40;;;;;;;14.81;91.68;100107.63;1687861;83;26187;-77
2021/09/17 05:46:10;;;;;;;10.65;8.23;;;;;;;14.81;91.86;100106.80;1711716;83;25857;-77
2021/09/17 05:48:37;;;;;;;16.87;9.85;;;;;;;14.84;92.04;100113.91;1689821;83;28173;-77
2021/09/17 05:51:04;;;;;;;13.98;8.73;;;;;;;14.84;92.12;100111.20;1663059;83;25893;-77
2021/09/17 05:53:32;;;;;;;10.70;7.35;;;;;;;14.88;92.34;100107.55;1686969;83;25894;-77
2021/09/17 05:55:59;;;;;;;10.63;8.18;;;;;;;14.90;92.34;100107.63;1711556;83;25716;-78
2021/09/17 05:58:30;;;;;;;12.45;8.50;;;;;;;14.91;92.44;100108.43;1710090;83;25823;-77
2021/09/17 06:00:54;;;;;;;13.78;9.10;;;;;;;14.94;92.57;100107.98;1679410;84;27429;-77
2021/09/17 06:03:22;;;;;;;12.80;8.93;;;;;;;14.95;92.40;100107.75;1721285;82;25826;-77
2021/09/17 06:05:49;;;;;;;8.95;7.92;;;;;;;15.00;92.56;100115.17;1721357;83;25820;-77
2021/09/17 06:08:16;;;;;;;13.68;8.65;;;;;;;15.00;92.36;100117.34;1686905;83;25894;-77
2021/09/17 06:10:43;;;;;;;15.58;9.25;;;;;;;14.98;92.35;100115.92;1659677;83;25762;-77
2021/09/17 06:13:10;;;;;;;10.43;7.85;;;;;;;14.99;92.67;100122.43;1722804;82;27472;-78
2021/09/17 06:15:37;;;;;;;10.03;8.10;;;;;;;15.01;92.57;100116.28;1695276;84;25821;-77
2021/09/17 06:18:04;;;;;;;9.98;8.08;;;;;;;15.03;92.73;100112.03;1681260;82;26310;-77
2021/09/17 06:20:32;;;;;;;9.05;8.00;;;;;;;15.06;92.76;100113.73;1687084;83;25894;-77
2021/09/17 06:22:59;;;;;;;10.28;7.75;;;;;;;15.09;92.77;100104.38;1706092;83;25782;-77
2021/09/17 06:25:26;;;;;;;10.50;8.00;;;;;;;15.10;92.75;100103.30;1706006;83;27475;-77
2021/09/17 06:27:53;;;;;;;14.25;7.87;;;;;;;15.14;92.70;100099.92;1689270;83;25794;-77
2021/09/17 06:30:20;;;;;;;14.43;9.15;;;;;;;15.15;92.52;100089.45;1695430;83;26562;-77
2021/09/17 06:32:47;;;;;;;15.93;9.25;;;;;;;15.18;92.52;100092.22;1716298;83;26150;-77
2021/09/17 06:35:14;;;;;;;17.10;9.55;;;;;;;15.18;92.15;100093.56;1719204;83;25882;-76
2021/09/17 06:37:52;;;;;;;15.20;8.73;;;;;;;15.19;92.42;100091.16;1694771;82;28172;-77
2021/09/17 06:40:22;;;;;;;13.43;9.15;;;;;;;15.21;92.31;100087.17;1686925;82;25996;-77
2021/09/17 06:42:50;;;;;;;14.70;9.53;;;;;;;15.23;92.29;100086.94;1726515;82;25748;-77
2021/09/17 06:45:17;;;;;;;19.48;10.95;;;;;;;15.27;92.42;100085.42;1726329;83;26120;-77
2021/09/17 06:47:54;;;;;;;15.40;9.90;;;;;;;15.29;92.30;100084.70;1694512;83;25937;-77
2021/09/17 06:50:24;;;;;;;19.20;11.08;;;;;;;15.33;92.34;100088.03;1686822;83;28143;-77
2021/09/17 06:52:54;;;;;;;15.40;10.45;;;;;;;15.38;92.50;100080.59;1726376;81;25831;-77
2021/09/17 06:55:25;;;;;;;16.67;10.85;;;;;;;15.44;92.42;100088.63;1737109;82;25842;-77
2021/09/17 06:57:59;;;;;;;16.23;10.82;;;;;;;15.50;92.31;100084.72;1678657;83;26289;-77
2021/09/17 07:00:29;;;;;;;20.30;11.97;;;;;;;15.53;92.28;100085.08;1687924;83;25875;-77
2021/09/17 07:02:56;;;;;;;14.43;10.72;;;;;;;15.55;92.49;100086.18;1719409;83;27543;-77
2021/09/17 07:05:26;;;;;;;18.55;11.68;;;;;;;15.60;92.76;100083.10;1719564;83;25881;-77
2021/09/17 07:08:01;;;;;;;13.35;11.40;;;;;;;15.64;92.57;100089.68;1655230;83;26602;-77
2021/09/17 07:10:30;;;;;;;19.00;12.85;;;;;;;15.70;92.79;100086.57;1693459;82;25824;-77
2021/09/17 07:12:57;;;;;;;14.25;12.43;;;;;;;15.72;92.67;100095.26;1698168;83;25733;-77
2021/09/17 07:15:25;;;;;;;15.98;14.10;;;;;;;15.75;92.48;100089.41;1716921;83;27487;-77
2021/09/17 07:17:52;;;;;;;16.80;13.35;;;;;;;15.74;92.41;100089.92;1721552;83;26536;-77
2021/09/17 07:20:20;;;;;;;14.60;12.03;;;;;;;15.79;92.61;100091.41;1697998;83;26479;-77
2021/09/17 07:22:48;;;;;;;14.15;11.20;;;;;;;15.81;92.17;100093.35;1728435;82;25858;-77
2021/09/17 07:25:17;;;;;;;12.45;11.05;;;;;;;15.81;91.91;100089.81;1721819;83;26598;-77
2021/09/17 07:27:44;;;;;;;18.17;11.30;;;;;;;15.81;92.12;100089.30;1705716;82;27546;-77
2021/09/17 07:30:13;;;;;;;14.18;10.75;;;;;;;15.85;92.55;100082.38;1674629;82;25844;-77
2021/09/17 07:32:41;;;;;;;12.58;10.78;;;;;;;15.87;92.38;100089.71;1728767;81;25887;-79
2021/09/17 07:35:09;;;;;;;12.98;11.00;;;;;;;15.92;92.56;100087.66;1721763;83;25425;-79
2021/09/17 07:37:37;;;;;;;15.10;11.43;;;;;;;15.98;92.66;100088.91;1674588;82;26438;-79
2021/09/17 07:40:06;;;;;;;17.40;12.82;;;;;;;16.04;92.63;100087.13;1706112;83;27426;-77
2021/09/17 07:42:33;;;;;;;12.90;11.25;;;;;;;16.09;92.41;100080.51;1722376;83;26418;-78
2021/09/17 07:45:00;;;;;;;13.70;10.90;;;;;;;16.12;92.17;100082.75;1690537;83;25849;-77
2021/09/17 07:47:27;;;;;;;13.55;11.75;;;;;;;16.13;91.93;100085.73;1697244;83;25801;-77
2021/09/17 07:49:54;;;;;;;11.93;10.68;;;;;;;16.14;91.87;100082.78;1664758;83;25770;-78
2021/09/17 07:52:21;;;;;;;12.70;11.48;;;;;;;16.17;92.20;100084.20;1724202;82;27462;-77
2021/09/17 07:54:48;;;;;;;14.05;11.22;;;;;;;16.22;92.05;100084.33;1698228;84;26619;-77
2021/09/17 07:57:16;;;;;;;14.78;11.60;;;;;;;16.23;92.06;100083.25;1640425;83;26176;-77
2021/09/17 07:59:43;;;;;;;13.85;12.43;;;;;;;16.28;92.24;100087.44;1697735;83;25968;-77
2021/09/17 08:02:10;;;;;;;13.93;12.30;;;;;;;16.30;91.68;100080.44;1725612;82;25735;-78
2021/09/17 08:04:38;;;;;;;13.10;11.85;;;;;;;16.29;91.43;100079.63;1698610;83;27437;-77
2021/09/17 08:07:06;;;;;;;17.48;13.30;;;;;;;16.29;91.41;100082.34;1688719;83;26012;-78
2021/09/17 08:09:34;;;;;;;15.28;13.22;;;;;;;16.34;91.94;100079.73;1670522;83;26485;-78
2021/09/17 08:12:03;;;;;;;13.98;12.25;;;;;;;16.39;91.89;100081.72;1686136;83;25884;-77
2021/09/17 08:14:30;;;;;;;15.05;13.28;;;;;;;16.46;91.86;100081.08;1656166;84;25907;-78
2021/09/17 08:16:57;;;;;;;18.32;16.40;;;;;;;16.52;91.69;100076.09;1696129;83;27470;-77
2021/09/17 08:19:25;;;;;;;19.15;17.15;;;;;;;16.53;91.29;100076.41;1694808;83;26021;-76
2021/09/17 08:21:52;;;;;;;23.27;20.48;;;;;;;16.58;91.08;100075.97;1719996;83;25729;-77
2021/09/17 08:24:19;;;;;;;24.32;21.77;;;;;;;16.61;91.16;100080.09;1693254;83;25833;-78
2021/09/17 08:26:50;;;;;;;24.37;21.87;;;;;;;16.71;91.57;100077.06;1720008;83;25860;-78
2021/09/17 08:29:18;;;;;;;24.40;19.95;;;;;;;16.82;91.34;100072.16;1671470;83;27545;-77
2021/09/17 08:31:46;;;;;;;22.95;20.30;;;;;;;16.93;91.29;100068.59;1722485;82;25779;-77
2021/09/17 08:34:13;;;;;;;22.67;20.27;;;;;;;17.10;92.05;100068.64;1695570;84;25913;-77
2021/09/17 08:36:40;;;;;;;21.50;19.20;;;;;;;17.22;92.04;100069.40;1645999;83;25762;-78
2021/09/17 08:39:09;;;;;;;19.45;17.50;;;;;;;17.26;90.86;100063.78;1688629;83;26560;-77
2021/09/17 08:41:37;;;;;;;21.40;18.27;;;;;;;17.35;90.54;100068.27;1690854;83;27476;-77
2021/09/17 08:44:05;;;;;;;18.95;17.15;;;;;;;17.41;90.07;100064.06;1718239;82;26165;-78
2021/09/17 08:46:33;;;;;;;18.50;16.70;;;;;;;17.46;90.06;100065.52;1711144;83;25779;-78
2021/09/17 08:49:02;;;;;;;21.75;18.62;;;;;;;17.53;90.10;100066.22;1639549;83;26036;-77
2021/09/17 08:51:30;;;;;;;18.13;15.57;;;;;;;17.59;89.40;100068.47;1690726;83;25951;-78
2021/09/17 08:53:57;;;;;;;15.70;13.08;;;;;;;17.58;89.47;100069.52;1717326;83;27508;-77
2021/09/17 08:56:24;;;;;;;16.30;14.35;;;;;;;17.62;89.21;100070.70;1694463;83;25813;-77
2021/09/17 08:58:51;;;;;;;17.15;15.35;;;;;;;17.66;89.08;100062.38;1656698;83;26023;-78
2021/09/17 09:01:32;;;;;;;17.98;15.03;;;;;;;17.71;89.54;100060.55;1698061;83;25758;-78
2021/09/17 09:04:03;;;;;;;16.33;14.73;;;;;;;17.81;89.56;100072.10;1726947;83;25792;-78
2021/09/17 09:06:46;;;;;;;15.48;13.98;;;;;;;17.86;89.18;100063.20;1710783;82;28276;-78
2021/09/17 09:09:20;;;;;;;15.05;13.65;;;;;;;17.93;89.35;100069.29;1629322;85;25891;-78
2021/09/17 09:11:51;;;;;;;17.37;15.00;;;;;;;17.91;88.07;100068.19;1666190;83;25836;-77
2021/09/17 09:14:18;;;;;;;;;;;;;;;17.90;88.15;100068.45;1723135;82;25830;-78
2021/09/17 09:16:49;;;;;;;14.25;12.95;;;;;;;17.90;88.01;100072.52;1694433;83;25800;-78
2021/09/17 09:19:19;;;;;;;;;;;;;;;17.88;87.45;100073.30;1680369;83;27479;-78
2021/09/17 09:21:48;;;;;;;14.58;13.22;;;;;;;17.90;87.44;100073.87;1717713;81;25715;-78
2021/09/17 09:24:19;;;;;;;16.15;14.58;;;;;;;17.92;87.87;100071.17;1688336;82;26628;-78
2021/09/17 09:26:46;;;;;;;15.55;14.10;;;;;;;18.01;88.18;100072.41;1734159;80;25743;-78
2021/09/17 09:29:28;;;;;;;16.40;14.73;;;;;;;18.10;87.96;100069.56;1687888;83;25784;-78
2021/09/17 09:31:56;;;;;;;14.07;12.58;;;;;;;18.13;88.03;100068.26;1725503;83;28246;-78
2021/09/17 09:34:48;;;;;;;17.85;13.95;;;;;;;18.21;87.99;100068.66;1665102;83;26543;-78
2021/09/17 09:37:22;;;;;;;12.88;10.40;;;;;;;18.33;88.13;100067.17;1682637;83;25911;-78
2021/09/17 09:40:05;;;;;;;10.20;9.13;;;;;;;18.40;87.52;100066.47;1695236;82;25775;-78
2021/09/17 09:42:39;;;;;;;14.23;9.60;;;;;;;18.41;86.37;100067.56;1726020;83;25755;-77
2021/09/17 09:45:11;;;;;;;9.30;8.30;;;;;;;18.44;85.99;100068.47;1710407;83;27563;-77
2021/09/17 09:47:39;;;;;;;9.05;8.13;;;;;;;18.45;85.96;100068.73;1662199;84;26127;-77
2021/09/17 09:50:11;;;;;;;8.10;6.12;;;;;;;18.44;85.91;100069.00;1690642;83;25855;-77
2021/09/17 09:52:38;;;;;;;7.08;5.92;;;;;;;18.46;85.47;100073.10;1696148;84;26193;-77
2021/09/17 09:55:07;;;;;;;9.00;6.95;;;;;;;18.50;86.02;100073.41;1692314;83;25863;-77
2021/09/17 09:57:35;;;;;;;6.50;5.90;;;;;;;18.51;85.52;100063.39;1696128;83;27548;-77
2021/09/17 10:00:08;;;;;;;7.03;5.87;;;;;;;18.54;85.93;100071.83;1689687;83;25857;-78
2021/09/17 10:02:44;;;;;;;6.37;5.72;;;;;;;18.56;85.76;100067.53;1723797;83;26468;-78
2021/09/17 10:05:14;;;;;;;6.40;5.80;;;;;;;18.58;85.70;100062.67;1722613;82;25853;-78
2021/09/17 10:07:43;;;;;;;7.65;5.53;;;;;;;18.60;84.72;100067.31;1697241;82;26039;-78
2021/09/17 10:10:12;;;;;;;5.33;4.83;;;;;;;18.60;85.18;100068.67;1695769;82;27566;-77
2021/09/17 10:12:40;;;;;;;9.90;6.17;;;;;;;18.61;84.65;100069.77;1721929;83;25959;-76
2021/09/17 10:15:10;;;;;;;6.50;5.33;;;;;;;18.62;84.05;100069.23;1697907;83;26042;-77
2021/09/17 10:17:39;;;;;;;6.33;4.50;;;;;;;18.66;84.83;100069.84;1668986;83;26273;-77
2021/09/17 10:20:10;;;;;;;7.17;4.58;;;;;;;18.76;84.67;100065.06;1713419;83;25883;-76
2021/09/17 10:22:44;;;;;;;;;;;;;;;18.81;83.93;100059.70;1724788;83;27423;-76
2021/09/17 10:25:22;;;;;;;7.22;4.10;;;;;;;18.79;82.66;100069.47;1718528;82;25862;-77
2021/09/17 10:28:11;;;;;;;3.72;3.20;;;;;;;18.74;82.68;100064.50;1695092;83;25919;-76
2021/09/17 10:30:41;;;;;;;3.72;3.42;;;;;;;18.73;83.60;100056.92;1641588;83;26271;-76
2021/09/17 10:33:27;;;;;;;3.92;3.37;;;;;;;18.77;83.44;100058.05;1721986;83;26449;-77
2021/09/17 10:35:55;;;;;;;3.90;3.15;;;;;;;18.78;83.01;100064.27;1666398;83;27191;-76
2021/09/17 10:38:28;;;;;;;3.90;2.77;;;;;;;18.78;82.99;100054.24;1650677;84;25846;-77
2021/09/17 10:41:02;;;;;;;2.98;2.67;;;;;;;18.84;83.63;100056.50;1694277;83;26584;-76
2021/09/17 10:43:39;;;;;;;5.28;3.80;;;;;;;18.87;83.19;100064.11;1722029;83;25479;-76
2021/09/17 10:46:11;;;;;;;6.35;3.10;;;;;;;18.84;82.52;100057.86;1693143;83;26572;-76
2021/09/17 10:48:49;;;;;;;6.60;3.08;;;;;;;18.84;82.74;100053.78;1698346;83;27592;-76
2021/09/17 10:51:33;;;;;;;4.78;2.75;;;;;;;18.88;83.06;100057.06;1721348;83;25908;-77
2021/09/17 10:54:13;;;;;;;3.75;2.27;;;;;;;18.92;82.44;100055.52;1719336;82;26555;-77
2021/09/17 10:56:58;;;;;;;4.83;2.37;;;;;;;18.92;82.29;100060.94;1643303;83;26185;-77
2021/09/17 10:59:28;;;;;;;3.52;2.30;;;;;;;18.91;82.36;100057.93;1718188;83;26084;-76
2021/09/17 11:02:00;;;;;;;3.55;2.25;;;;;;;18.94;82.45;100062.03;1721785;83;28240;-76
2021/09/17 11:04:42;;;;;;;3.80;2.17;;;;;;;18.94;81.72;100056.61;1716044;83;25877;-76
2021/09/17 11:07:32;;;;;;;2.98;2.52;;;;;;;18.95;81.47;100052.80;1717476;82;25991;-77
2021/09/17 11:09:58;;;;;;;5.60;2.50;;;;;;;18.98;81.83;100057.20;1692371;82;26615;-76
2021/09/17 11:12:38;;;;;;;4.65;2.95;;;;;;;19.01;81.35;100053.17;1692096;83;25840;-77
2021/09/17 11:15:19;;;;;;;4.78;2.83;;;;;;;19.02;81.48;100051.55;1720833;83;28140;-77
2021/09/17 11:18:01;;;;;;;3.22;2.87;;;;;;;19.03;81.40;100056.45;1681292;83;26237;-77
2021/09/17 11:20:30;;;;;;;3.58;2.42;;;;;;;19.06;81.41;100051.84;1682478;83;25840;-77
2021/09/17 11:23:06;;;;;;;3.92;2.47;;;;;;;19.11;81.42;100046.48;1692483;83;25972;-76
2021/09/17 11:25:38;;;;;;;2.80;2.60;;;;;;;19.07;80.78;100054.33;1720356;83;25784;-76